sensor_id;sensor_type;location;lat;lon;timestamp;pressure;altitude;pressure_sealevel;temperature;humidity
62420;BME280;48460;51.616;5.426;2023-02-19T00:01:42;101660.03;;;9.38;100.00
62420;BME280;48460;51.616;5.426;2023-02-19T00:04:19;101661.84;;;9.36;100.00
62420;BME280;48460;51.616;5.426;2023-02-19T00:06:46;101655.09;;;9.29;100.00
62420;BME280;48460;51.616;5.426;2023-02-19T00:09:14;101654.34;;;9.25;100.00
62420;BME280;48460;51.616;5.426;2023-02-19T00:11:40;101658.66;;;9.26;100.00
62420;BME280;48460;51.616;5.426;2023-02-19T00:14:17;101661.28;;;9.26;100.00
62420;BME280;48460;51.616;5.426;2023-02-19T00:16:48;101664.94;;;9.22;100.00
62420;BME280;48460;51.616;5.426;2023-02-19T00:19:18;101657.94;;;9.21;100.00
62420;BME280;48460;51.616;5.426;2023-02-19T00:21:47;101657.75;;;9.27;100.00
62420;BME280;48460;51.616;5.426;2023-02-19T00:24:15;101679.56;;;9.29;100.00
62420;BME280;48460;51.616;5.426;2023-02-19T00:26:48;101661.38;;;9.23;100.00
62420;BME280;48460;51.616;5.426;2023-02-19T00:29:27;101675.25;;;9.27;100.00
62420;BME280;48460;51.616;5.426;2023-02-19T00:32:01;101663.06;;;9.26;100.00
62420;BME280;48460;51.616;5.426;2023-02-19T00:34:28;101670.19;;;9.22;100.00
62420;BME280;48460;51.616;5.426;2023-02-19T00:36:57;101673.47;;;9.29;100.00
62420;BME280;48460;51.616;5.426;2023-02-19T00:39:23;101677.84;;;9.28;100.00
62420;BME280;48460;51.616;5.426;2023-02-19T00:41:50;101683.13;;;9.27;100.00
62420;BME280;48460;51.616;5.426;2023-02-19T00:44:23;101677.03;;;9.26;100.00
62420;BME280;48460;51.616;5.426;2023-02-19T00:46:52;101674.50;;;9.23;100.00
62420;BME280;48460;51.616;5.426;2023-02-19T00:49:21;101663.31;;;9.18;100.00
62420;BME280;48460;51.616;5.426;2023-02-19T00:51:53;101665.06;;;9.18;100.00
62420;BME280;48460;51.616;5.426;2023-02-19T00:54:19;101683.09;;;9.28;100.00
62420;BME280;48460;51.616;5.426;2023-02-19T00:56:50;101675.44;;;9.22;100.00
62420;BME280;48460;51.616;5.426;2023-02-19T00:59:18;101673.75;;;9.20;100.00
62420;BME280;48460;51.616;5.426;2023-02-19T01:01:46;101676.38;;;9.20;100.00
62420;BME280;48460;51.616;5.426;2023-02-19T01:04:19;101679.69;;;9.25;100.00
62420;BME280;48460;51.616;5.426;2023-02-19T01:06:48;101685.97;;;9.21;100.00
62420;BME280;48460;51.616;5.426;2023-02-19T01:09:13;101698.03;;;9.26;100.00
62420;BME280;48460;51.616;5.426;2023-02-19T01:11:47;101685.16;;;9.19;100.00
62420;BME280;48460;51.616;5.426;2023-02-19T01:14:16;101691.13;;;9.24;100.00
62420;BME280;48460;51.616;5.426;2023-02-19T01:16:41;101698.13;;;9.23;100.00
62420;BME280;48460;51.616;5.426;2023-02-19T01:19:10;101701.72;;;9.21;100.00
62420;BME280;48460;51.616;5.426;2023-02-19T01:21:40;101691.28;;;9.19;100.00
62420;BME280;48460;51.616;5.426;2023-02-19T01:24:11;101693.94;;;9.18;100.00
62420;BME280;48460;51.616;5.426;2023-02-19T01:26:39;101708.72;;;9.20;100.00
62420;BME280;48460;51.616;5.426;2023-02-19T01:29:05;101706.09;;;9.20;100.00
62420;BME280;48460;51.616;5.426;2023-02-19T01:31:33;101699.94;;;9.21;100.00
62420;BME280;48460;51.616;5.426;2023-02-19T01:34:10;101704.44;;;9.18;100.00
62420;BME280;48460;51.616;5.426;2023-02-19T01:36:55;101711.28;;;9.22;100.00
62420;BME280;48460;51.616;5.426;2023-02-19T01:39:23;101701.91;;;9.15;100.00
62420;BME280;48460;51.616;5.426;2023-02-19T01:41:53;101707.97;;;9.17;100.00
62420;BME280;48460;51.616;5.426;2023-02-19T01:46:49;101708.22;;;9.09;100.00
62420;BME280;48460;51.616;5.426;2023-02-19T01:49:24;101715.94;;;9.13;100.00
62420;BME280;48460;51.616;5.426;2023-02-19T01:52:00;101727.13;;;9.19;100.00
62420;BME280;48460;51.616;5.426;2023-02-19T01:54:33;101713.13;;;9.20;100.00
62420;BME280;48460;51.616;5.426;2023-02-19T01:57:12;101715.84;;;9.17;100.00
62420;BME280;48460;51.616;5.426;2023-02-19T01:59:41;101707.28;;;9.10;100.00
62420;BME280;48460;51.616;5.426;2023-02-19T02:02:09;101713.38;;;9.12;100.00
62420;BME280;48460;51.616;5.426;2023-02-19T02:04:38;101706.53;;;9.06;100.00
62420;BME280;48460;51.616;5.426;2023-02-19T02:07:05;101701.25;;;9.08;100.00
62420;BME280;48460;51.616;5.426;2023-02-19T02:09:54;101705.75;;;9.04;100.00
62420;BME280;48460;51.616;5.426;2023-02-19T02:12:44;101719.53;;;9.11;100.00
62420;BME280;48460;51.616;5.426;2023-02-19T02:15:15;101700.63;;;9.00;100.00
62420;BME280;48460;51.616;5.426;2023-02-19T02:17:52;101713.56;;;9.06;100.00
62420;BME280;48460;51.616;5.426;2023-02-19T02:20:43;101713.63;;;9.04;100.00
62420;BME280;48460;51.616;5.426;2023-02-19T02:23:26;101703.34;;;8.97;100.00
62420;BME280;48460;51.616;5.426;2023-02-19T02:29:01;101715.53;;;8.99;100.00
62420;BME280;48460;51.616;5.426;2023-02-19T02:31:43;101710.41;;;8.95;100.00
62420;BME280;48460;51.616;5.426;2023-02-19T02:34:19;101701.78;;;8.91;100.00
62420;BME280;48460;51.616;5.426;2023-02-19T02:36:52;101701.66;;;8.96;100.00
62420;BME280;48460;51.616;5.426;2023-02-19T02:39:22;101716.50;;;8.95;100.00
62420;BME280;48460;51.616;5.426;2023-02-19T02:41:57;101716.41;;;8.98;100.00
62420;BME280;48460;51.616;5.426;2023-02-19T02:44:43;101714.91;;;8.91;100.00
62420;BME280;48460;51.616;5.426;2023-02-19T02:47:58;101715.81;;;8.90;100.00
62420;BME280;48460;51.616;5.426;2023-02-19T02:50:28;101712.34;;;8.89;100.00
62420;BME280;48460;51.616;5.426;2023-02-19T02:53:04;101718.56;;;8.85;100.00
62420;BME280;48460;51.616;5.426;2023-02-19T02:55:57;101714.38;;;8.80;100.00
62420;BME280;48460;51.616;5.426;2023-02-19T02:58:25;101727.38;;;8.83;100.00
62420;BME280;48460;51.616;5.426;2023-02-19T03:01:08;101730.09;;;8.80;100.00
62420;BME280;48460;51.616;5.426;2023-02-19T03:03:55;101740.50;;;8.83;100.00
62420;BME280;48460;51.616;5.426;2023-02-19T03:06:24;101739.97;;;8.72;100.00
62420;BME280;48460;51.616;5.426;2023-02-19T03:08:55;101741.78;;;8.70;100.00
62420;BME280;48460;51.616;5.426;2023-02-19T03:11:25;101727.19;;;8.61;100.00
62420;BME280;48460;51.616;5.426;2023-02-19T03:14:47;101737.47;;;8.67;100.00
62420;BME280;48460;51.616;5.426;2023-02-19T03:17:52;101755.94;;;8.64;100.00
62420;BME280;48460;51.616;5.426;2023-02-19T03:20:49;101751.69;;;8.60;100.00
62420;BME280;48460;51.616;5.426;2023-02-19T03:23:17;101739.72;;;8.51;100.00
62420;BME280;48460;51.616;5.426;2023-02-19T03:25:46;101740.66;;;8.49;100.00
62420;BME280;48460;51.616;5.426;2023-02-19T03:28:34;101747.47;;;8.54;100.00
62420;BME280;48460;51.616;5.426;2023-02-19T03:31:22;101742.31;;;8.51;100.00
62420;BME280;48460;51.616;5.426;2023-02-19T03:33:55;101746.75;;;8.49;100.00
62420;BME280;48460;51.616;5.426;2023-02-19T03:36:22;101753.56;;;8.55;100.00
62420;BME280;48460;51.616;5.426;2023-02-19T03:39:04;101761.38;;;8.56;100.00
62420;BME280;48460;51.616;5.426;2023-02-19T03:41:39;101739.72;;;8.50;100.00
62420;BME280;48460;51.616;5.426;2023-02-19T03:47:13;101745.72;;;8.55;100.00
62420;BME280;48460;51.616;5.426;2023-02-19T03:58:17;101776.94;;;8.62;100.00
62420;BME280;48460;51.616;5.426;2023-02-19T04:01:03;101773.44;;;8.63;100.00
62420;BME280;48460;51.616;5.426;2023-02-19T04:03:48;101774.16;;;8.69;100.00
62420;BME280;48460;51.616;5.426;2023-02-19T04:06:39;101792.38;;;8.73;100.00
62420;BME280;48460;51.616;5.426;2023-02-19T04:09:08;101790.75;;;8.69;100.00
62420;BME280;48460;51.616;5.426;2023-02-19T04:11:39;101784.81;;;8.62;100.00
62420;BME280;48460;51.616;5.426;2023-02-19T04:14:33;101796.97;;;8.65;100.00
62420;BME280;48460;51.616;5.426;2023-02-19T04:17:07;101787.31;;;8.67;100.00
62420;BME280;48460;51.616;5.426;2023-02-19T04:19:39;101791.88;;;8.60;100.00
62420;BME280;48460;51.616;5.426;2023-02-19T04:22:06;101802.38;;;8.59;100.00
62420;BME280;48460;51.616;5.426;2023-02-19T04:24:42;101801.50;;;8.60;100.00
62420;BME280;48460;51.616;5.426;2023-02-19T04:27:10;101805.16;;;8.54;100.00
62420;BME280;48460;51.616;5.426;2023-02-19T04:29:36;101813.69;;;8.61;100.00
62420;BME280;48460;51.616;5.426;2023-02-19T04:32:01;101812.09;;;8.57;100.00
62420;BME280;48460;51.616;5.426;2023-02-19T04:34:29;101818.09;;;8.60;100.00
62420;BME280;48460;51.616;5.426;2023-02-19T04:36:55;101813.88;;;8.55;100.00
62420;BME280;48460;51.616;5.426;2023-02-19T04:39:20;101815.56;;;8.57;100.00
62420;BME280;48460;51.616;5.426;2023-02-19T04:41:46;101825.22;;;8.55;100.00
62420;BME280;48460;51.616;5.426;2023-02-19T04:44:22;101832.09;;;8.59;100.00
62420;BME280;48460;51.616;5.426;2023-02-19T04:46:51;101844.25;;;8.62;100.00
62420;BME280;48460;51.616;5.426;2023-02-19T04:49:20;101839.09;;;8.59;100.00
62420;BME280;48460;51.616;5.426;2023-02-19T04:51:53;101844.16;;;8.65;100.00
62420;BME280;48460;51.616;5.426;2023-02-19T04:54:21;101854.81;;;8.60;100.00
62420;BME280;48460;51.616;5.426;2023-02-19T04:56:54;101863.47;;;8.62;100.00
62420;BME280;48460;51.616;5.426;2023-02-19T04:59:22;101860.13;;;8.57;100.00
62420;BME280;48460;51.616;5.426;2023-02-19T05:01:59;101870.63;;;8.57;100.00
62420;BME280;48460;51.616;5.426;2023-02-19T05:04:35;101874.19;;;8.55;100.00
62420;BME280;48460;51.616;5.426;2023-02-19T05:07:04;101877.66;;;8.55;100.00
62420;BME280;48460;51.616;5.426;2023-02-19T05:09:38;101873.50;;;8.48;100.00
62420;BME280;48460;51.616;5.426;2023-02-19T05:12:06;101882.91;;;8.55;100.00
62420;BME280;48460;51.616;5.426;2023-02-19T05:14:34;101879.63;;;8.47;100.00
62420;BME280;48460;51.616;5.426;2023-02-19T05:17:00;101878.81;;;8.45;100.00
62420;BME280;48460;51.616;5.426;2023-02-19T05:19:25;101885.78;;;8.46;100.00
62420;BME280;48460;51.616;5.426;2023-02-19T05:21:53;101892.94;;;8.39;100.00
62420;BME280;48460;51.616;5.426;2023-02-19T05:24:19;101886.06;;;8.34;100.00
62420;BME280;48460;51.616;5.426;2023-02-19T05:26:44;101887.81;;;8.33;100.00
62420;BME280;48460;51.616;5.426;2023-02-19T05:29:12;101893.00;;;8.35;100.00
62420;BME280;48460;51.616;5.426;2023-02-19T05:31:38;101897.56;;;8.28;100.00
62420;BME280;48460;51.616;5.426;2023-02-19T05:34:03;101903.66;;;8.29;100.00
62420;BME280;48460;51.616;5.426;2023-02-19T05:36:32;101908.13;;;8.23;100.00
62420;BME280;48460;51.616;5.426;2023-02-19T05:38:58;101918.59;;;8.25;100.00
62420;BME280;48460;51.616;5.426;2023-02-19T05:41:38;101905.53;;;8.23;100.00
62420;BME280;48460;51.616;5.426;2023-02-19T05:44:03;101907.22;;;8.26;100.00
62420;BME280;48460;51.616;5.426;2023-02-19T05:46:34;101903.09;;;8.16;100.00
62420;BME280;48460;51.616;5.426;2023-02-19T05:49:04;101911.03;;;8.13;100.00
62420;BME280;48460;51.616;5.426;2023-02-19T05:51:32;101912.88;;;8.09;100.00
62420;BME280;48460;51.616;5.426;2023-02-19T05:53:58;101916.31;;;8.11;100.00
62420;BME280;48460;51.616;5.426;2023-02-19T05:56:39;101917.16;;;8.12;100.00
62420;BME280;48460;51.616;5.426;2023-02-19T05:59:26;101919.00;;;8.08;100.00
62420;BME280;48460;51.616;5.426;2023-02-19T06:01:55;101913.97;;;8.01;100.00
62420;BME280;48460;51.616;5.426;2023-02-19T06:04:22;101907.84;;;8.00;100.00
62420;BME280;48460;51.616;5.426;2023-02-19T06:06:50;101911.34;;;8.01;100.00
62420;BME280;48460;51.616;5.426;2023-02-19T06:09:16;101911.38;;;7.99;100.00
62420;BME280;48460;51.616;5.426;2023-02-19T06:11:42;101916.75;;;7.93;100.00
62420;BME280;48460;51.616;5.426;2023-02-19T06:14:11;101914.19;;;7.91;100.00
62420;BME280;48460;51.616;5.426;2023-02-19T06:16:40;101925.44;;;7.95;100.00
62420;BME280;48460;51.616;5.426;2023-02-19T06:19:10;101931.56;;;7.94;100.00
62420;BME280;48460;51.616;5.426;2023-02-19T06:21:40;101928.16;;;7.90;100.00
62420;BME280;48460;51.616;5.426;2023-02-19T06:24:18;101920.44;;;7.84;100.00
62420;BME280;48460;51.616;5.426;2023-02-19T06:26:43;101927.38;;;7.87;100.00
62420;BME280;48460;51.616;5.426;2023-02-19T06:29:11;101921.28;;;7.86;100.00
62420;BME280;48460;51.616;5.426;2023-02-19T06:31:36;101933.38;;;7.92;100.00
62420;BME280;48460;51.616;5.426;2023-02-19T06:34:03;101933.38;;;7.92;100.00
62420;BME280;48460;51.616;5.426;2023-02-19T06:36:29;101937.84;;;7.88;100.00
62420;BME280;48460;51.616;5.426;2023-02-19T06:38:58;101962.03;;;7.98;100.00
62420;BME280;48460;51.616;5.426;2023-02-19T06:41:24;101956.97;;;7.90;100.00
62420;BME280;48460;51.616;5.426;2023-02-19T06:43:52;101964.75;;;7.95;100.00
62420;BME280;48460;51.616;5.426;2023-02-19T06:46:18;101972.53;;;7.98;100.00
62420;BME280;48460;51.616;5.426;2023-02-19T06:48:46;101968.28;;;7.92;100.00
62420;BME280;48460;51.616;5.426;2023-02-19T06:51:14;101966.66;;;7.88;100.00
62420;BME280;48460;51.616;5.426;2023-02-19T06:53:43;101964.81;;;7.92;100.00
62420;BME280;48460;51.616;5.426;2023-02-19T06:56:30;101969.13;;;7.93;100.00
62420;BME280;48460;51.616;5.426;2023-02-19T06:59:00;101982.16;;;7.96;100.00
62420;BME280;48460;51.616;5.426;2023-02-19T07:01:28;101979.59;;;7.94;100.00
62420;BME280;48460;51.616;5.426;2023-02-19T07:03:57;101977.06;;;7.91;100.00
62420;BME280;48460;51.616;5.426;2023-02-19T07:06:24;101972.81;;;7.86;100.00
62420;BME280;48460;51.616;5.426;2023-02-19T07:09:03;101981.59;;;7.82;100.00
62420;BME280;48460;51.616;5.426;2023-02-19T07:11:31;101994.69;;;7.83;100.00
62420;BME280;48460;51.616;5.426;2023-02-19T07:14:07;101992.16;;;7.79;100.00
62420;BME280;48460;51.616;5.426;2023-02-19T07:16:40;102009.56;;;7.81;100.00
62420;BME280;48460;51.616;5.426;2023-02-19T07:19:09;102003.53;;;7.78;100.00
62420;BME280;48460;51.616;5.426;2023-02-19T07:21:36;102000.97;;;7.74;100.00
62420;BME280;48460;51.616;5.426;2023-02-19T07:24:11;102009.63;;;7.78;100.00
62420;BME280;48460;51.616;5.426;2023-02-19T07:26:54;102022.66;;;7.81;100.00
62420;BME280;48460;51.616;5.426;2023-02-19T07:29:20;102027.03;;;7.79;100.00
62420;BME280;48460;51.616;5.426;2023-02-19T07:31:48;102032.34;;;7.76;100.00
62420;BME280;48460;51.616;5.426;2023-02-19T07:34:14;102041.06;;;7.78;100.00
62420;BME280;48460;51.616;5.426;2023-02-19T07:36:43;102047.06;;;7.82;100.00
62420;BME280;48460;51.616;5.426;2023-02-19T07:39:19;102034.06;;;7.79;100.00
62420;BME280;48460;51.616;5.426;2023-02-19T07:41:47;102043.59;;;7.81;100.00
62420;BME280;48460;51.616;5.426;2023-02-19T07:44:15;102062.72;;;7.86;100.00
62420;BME280;48460;51.616;5.426;2023-02-19T07:46:44;102054.97;;;7.80;100.00
62420;BME280;48460;51.616;5.426;2023-02-19T07:49:09;102060.28;;;7.77;100.00
62420;BME280;48460;51.616;5.426;2023-02-19T07:51:37;102057.72;;;7.74;100.00
62420;BME280;48460;51.616;5.426;2023-02-19T07:54:05;102074.16;;;7.81;100.00
62420;BME280;48460;51.616;5.426;2023-02-19T07:56:37;102070.81;;;7.74;100.00
62420;BME280;48460;51.616;5.426;2023-02-19T07:59:03;102094.13;;;7.86;100.00
62420;BME280;48460;51.616;5.426;2023-02-19T08:01:29;102100.22;;;7.88;100.00
62420;BME280;48460;51.616;5.426;2023-02-19T08:04:13;102088.84;;;7.89;100.00
62420;BME280;48460;51.616;5.426;2023-02-19T08:06:40;102089.75;;;7.87;100.00
62420;BME280;48460;51.616;5.426;2023-02-19T08:09:10;102092.41;;;7.85;100.00
62420;BME280;48460;51.616;5.426;2023-02-19T08:11:46;102102.00;;;7.86;100.00
62420;BME280;48460;51.616;5.426;2023-02-19T08:14:35;102101.94;;;7.89;100.00
62420;BME280;48460;51.616;5.426;2023-02-19T08:17:00;102101.00;;;7.92;100.00
62420;BME280;48460;51.616;5.426;2023-02-19T08:19:28;102097.41;;;7.96;100.00
62420;BME280;48460;51.616;5.426;2023-02-19T08:21:58;102102.50;;;8.04;100.00
62420;BME280;48460;51.616;5.426;2023-02-19T08:24:27;102113.66;;;8.12;100.00
62420;BME280;48460;51.616;5.426;2023-02-19T08:26:55;102114.56;;;8.12;100.00
62420;BME280;48460;51.616;5.426;2023-02-19T08:29:25;102129.22;;;8.21;100.00
62420;BME280;48460;51.616;5.426;2023-02-19T08:32:16;102120.59;;;8.16;100.00
62420;BME280;48460;51.616;5.426;2023-02-19T08:34:42;102129.28;;;8.18;100.00
62420;BME280;48460;51.616;5.426;2023-02-19T08:37:13;102133.56;;;8.20;100.00
62420;BME280;48460;51.616;5.426;2023-02-19T08:39:42;102129.88;;;8.31;100.00
62420;BME280;48460;51.616;5.426;2023-02-19T08:42:07;102110.69;;;8.29;100.00
62420;BME280;48460;51.616;5.426;2023-02-19T08:44:35;102123.72;;;8.33;100.00
62420;BME280;48460;51.616;5.426;2023-02-19T08:47:02;102127.09;;;8.38;100.00
62420;BME280;48460;51.616;5.426;2023-02-19T08:49:29;102117.53;;;8.36;100.00
62420;BME280;48460;51.616;5.426;2023-02-19T08:51:57;102131.50;;;8.36;100.00
62420;BME280;48460;51.616;5.426;2023-02-19T08:54:44;102134.81;;;8.44;100.00
62420;BME280;48460;51.616;5.426;2023-02-19T08:57:15;102132.28;;;8.41;100.00
62420;BME280;48460;51.616;5.426;2023-02-19T08:59:43;102132.28;;;8.41;100.00
62420;BME280;48460;51.616;5.426;2023-02-19T09:02:09;102156.41;;;8.57;100.00
62420;BME280;48460;51.616;5.426;2023-02-19T09:04:47;102148.56;;;8.56;100.00
62420;BME280;48460;51.616;5.426;2023-02-19T09:07:32;102151.84;;;8.65;100.00
62420;BME280;48460;51.616;5.426;2023-02-19T09:10:27;102164.84;;;8.72;100.00
62420;BME280;48460;51.616;5.426;2023-02-19T09:13:06;102163.13;;;8.69;100.00
62420;BME280;48460;51.616;5.426;2023-02-19T09:15:39;102165.56;;;8.77;100.00
62420;BME280;48460;51.616;5.426;2023-02-19T09:18:07;102159.53;;;8.75;100.00
62420;BME280;48460;51.616;5.426;2023-02-19T09:20:43;102157.00;;;8.70;100.00
62420;BME280;48460;51.616;5.426;2023-02-19T09:23:19;102155.41;;;8.63;100.00
62420;BME280;48460;51.616;5.426;2023-02-19T09:26:01;102143.19;;;8.62;100.00
62420;BME280;48460;51.616;5.426;2023-02-19T09:28:49;102164.09;;;8.65;100.00
62420;BME280;48460;51.616;5.426;2023-02-19T09:31:26;102166.72;;;8.65;100.00
62420;BME280;48460;51.616;5.426;2023-02-19T09:34:04;102180.00;;;8.57;100.00
62420;BME280;48460;51.616;5.426;2023-02-19T09:36:59;102170.50;;;8.52;100.00
62420;BME280;48460;51.616;5.426;2023-02-19T09:39:34;102168.75;;;8.52;100.00
62420;BME280;48460;51.616;5.426;2023-02-19T09:42:19;102162.72;;;8.49;100.00
62420;BME280;48460;51.616;5.426;2023-02-19T09:44:58;102177.53;;;8.51;100.00
62420;BME280;48460;51.616;5.426;2023-02-19T09:47:42;102168.91;;;8.44;100.00
62420;BME280;48460;51.616;5.426;2023-02-19T09:50:16;102198.53;;;8.50;100.00
62420;BME280;48460;51.616;5.426;2023-02-19T09:52:57;102213.38;;;8.49;100.00
62420;BME280;48460;51.616;5.426;2023-02-19T09:55:33;102211.63;;;8.50;100.00
62420;BME280;48460;51.616;5.426;2023-02-19T09:58:32;102230.50;;;8.65;100.00
62420;BME280;48460;51.616;5.426;2023-02-19T10:01:02;102219.13;;;8.66;100.00
62420;BME280;48460;51.616;5.426;2023-02-19T10:03:35;102230.22;;;8.79;100.00
62420;BME280;48460;51.616;5.426;2023-02-19T10:06:19;102237.16;;;8.82;100.00
62420;BME280;48460;51.616;5.426;2023-02-19T10:08:54;102240.72;;;8.79;100.00
62420;BME280;48460;51.616;5.426;2023-02-19T10:11:24;102246.59;;;8.90;100.00
62420;BME280;48460;51.616;5.426;2023-02-19T10:14:00;102252.47;;;9.02;100.00
62420;BME280;48460;51.616;5.426;2023-02-19T10:16:35;102254.88;;;9.09;100.00
62420;BME280;48460;51.616;5.426;2023-02-19T10:19:08;102252.88;;;9.22;100.00
62420;BME280;48460;51.616;5.426;2023-02-19T10:21:38;102256.97;;;9.34;100.00
62420;BME280;48460;51.616;5.426;2023-02-19T10:24:20;102253.88;;;9.52;100.00
62420;BME280;48460;51.616;5.426;2023-02-19T10:26:57;102264.06;;;9.65;100.00
62420;BME280;48460;51.616;5.426;2023-02-19T10:29:25;102258.75;;;9.68;100.00
62420;BME280;48460;51.616;5.426;2023-02-19T10:32:23;102273.44;;;9.75;100.00
62420;BME280;48460;51.616;5.426;2023-02-19T10:35:13;102283.88;;;9.78;100.00
62420;BME280;48460;51.616;5.426;2023-02-19T10:37:48;102291.59;;;9.84;100.00
62420;BME280;48460;51.616;5.426;2023-02-19T10:40:19;102308.19;;;9.86;100.00
62420;BME280;48460;51.616;5.426;2023-02-19T10:42:53;102292.50;;;9.83;100.00
62420;BME280;48460;51.616;5.426;2023-02-19T10:45:23;102298.22;;;9.99;100.00
62420;BME280;48460;51.616;5.426;2023-02-19T10:47:50;102290.56;;;9.90;100.00
62420;BME280;48460;51.616;5.426;2023-02-19T10:50:30;102295.13;;;9.83;100.00
62420;BME280;48460;51.616;5.426;2023-02-19T10:52:58;102304.97;;;9.75;100.00
62420;BME280;48460;51.616;5.426;2023-02-19T10:56:25;102308.41;;;9.77;100.00
62420;BME280;48460;51.616;5.426;2023-02-19T10:58:43;102306.94;;;9.67;100.00
62420;BME280;48460;51.616;5.426;2023-02-19T11:01:22;102313.00;;;9.69;100.00
62420;BME280;48460;51.616;5.426;2023-02-19T11:04:18;102310.44;;;9.66;100.00
62420;BME280;48460;51.616;5.426;2023-02-19T11:06:49;102300.63;;;9.72;100.00
62420;BME280;48460;51.616;5.426;2023-02-19T11:09:38;102308.16;;;9.88;100.00
62420;BME280;48460;51.616;5.426;2023-02-19T11:12:05;102299.75;;;10.08;100.00
62420;BME280;48460;51.616;5.426;2023-02-19T11:14:32;102303.72;;;10.22;100.00
62420;BME280;48460;51.616;5.426;2023-02-19T11:17:00;102299.00;;;10.37;100.00
62420;BME280;48460;51.616;5.426;2023-02-19T11:19:44;102289.72;;;10.55;100.00
62420;BME280;48460;51.616;5.426;2023-02-19T11:22:38;102287.19;;;10.52;100.00
62420;BME280;48460;51.616;5.426;2023-02-19T11:30:44;102289.94;;;10.47;100.00
62420;BME280;48460;51.616;5.426;2023-02-19T11:35:46;102285.28;;;10.57;100.00
62420;BME280;48460;51.616;5.426;2023-02-19T11:38:15;102295.06;;;10.52;100.00
62420;BME280;48460;51.616;5.426;2023-02-19T11:47:26;102291.19;;;10.34;100.00
62420;BME280;48460;51.616;5.426;2023-02-19T11:50:26;102293.34;;;10.18;100.00
62420;BME280;48460;51.616;5.426;2023-02-19T11:58:34;102296.25;;;10.07;100.00
62420;BME280;48460;51.616;5.426;2023-02-19T12:27:06;102295.31;;;9.75;100.00
62420;BME280;48460;51.616;5.426;2023-02-19T12:32:41;102310.75;;;10.22;100.00
62420;BME280;48460;51.616;5.426;2023-02-19T12:35:32;102309.75;;;10.26;100.00
62420;BME280;48460;51.616;5.426;2023-02-19T12:43:31;102312.44;;;10.24;100.00
62420;BME280;48460;51.616;5.426;2023-02-19T12:46:02;102308.44;;;10.10;100.00
62420;BME280;48460;51.616;5.426;2023-02-19T12:48:44;102311.19;;;10.05;100.00
62420;BME280;48460;51.616;5.426;2023-02-19T12:51:47;102313.91;;;10.02;100.00
62420;BME280;48460;51.616;5.426;2023-02-19T12:54:20;102308.84;;;9.94;100.00
62420;BME280;48460;51.616;5.426;2023-02-19T12:56:56;102312.25;;;9.99;100.00
62420;BME280;48460;51.616;5.426;2023-02-19T12:59:37;102303.00;;;9.83;100.00
62420;BME280;48460;51.616;5.426;2023-02-19T13:02:17;102310.81;;;9.86;100.00
62420;BME280;48460;51.616;5.426;2023-02-19T13:10:32;102337.00;;;9.91;100.00
62420;BME280;48460;51.616;5.426;2023-02-19T13:13:06;102336.22;;;9.86;100.00
62420;BME280;48460;51.616;5.426;2023-02-19T13:15:42;102341.44;;;9.87;100.00
62420;BME280;48460;51.616;5.426;2023-02-19T13:18:23;102354.88;;;9.75;100.00
62420;BME280;48460;51.616;5.426;2023-02-19T13:20:50;102355.09;;;9.66;100.00
62420;BME280;48460;51.616;5.426;2023-02-19T13:23:32;102353.22;;;9.71;100.00
62420;BME280;48460;51.616;5.426;2023-02-19T13:29:42;102347.88;;;9.38;100.00
62420;BME280;48460;51.616;5.426;2023-02-19T13:37:54;102366.53;;;9.24;100.00
62420;BME280;48460;51.616;5.426;2023-02-19T13:40:34;102379.53;;;9.30;100.00
62420;BME280;48460;51.616;5.426;2023-02-19T13:43:31;102386.75;;;9.22;100.00
62420;BME280;48460;51.616;5.426;2023-02-19T13:46:06;102370.44;;;9.06;100.00
62420;BME280;48460;51.616;5.426;2023-02-19T13:48:35;102378.38;;;9.03;100.00
62420;BME280;48460;51.616;5.426;2023-02-19T13:59:35;102407.78;;;8.76;100.00
62420;BME280;48460;51.616;5.426;2023-02-19T14:04:57;102398.41;;;8.62;100.00
62420;BME280;48460;51.616;5.426;2023-02-19T14:07:53;102405.34;;;8.66;100.00
62420;BME280;48460;51.616;5.426;2023-02-19T14:10:54;102409.78;;;8.63;100.00
62420;BME280;48460;51.616;5.426;2023-02-19T14:16:31;102413.63;;;8.43;100.00
62420;BME280;48460;51.616;5.426;2023-02-19T14:19:42;102410.53;;;8.18;100.00
62420;BME280;48460;51.616;5.426;2023-02-19T14:28:32;102419.31;;;8.14;100.00
62420;BME280;48460;51.616;5.426;2023-02-19T14:31:38;102414.03;;;8.17;100.00
62420;BME280;48460;51.616;5.426;2023-02-19T14:34:36;102400.91;;;8.19;100.00
62420;BME280;48460;51.616;5.426;2023-02-19T14:37:02;102420.91;;;8.25;100.00
62420;BME280;48460;51.616;5.426;2023-02-19T14:39:49;102417.28;;;8.33;100.00
62420;BME280;48460;51.616;5.426;2023-02-19T14:42:24;102406.94;;;8.24;100.00
62420;BME280;48460;51.616;5.426;2023-02-19T14:45:05;102383.25;;;8.29;100.00
62420;BME280;48460;51.616;5.426;2023-02-19T14:47:35;102392.78;;;8.34;100.00
62420;BME280;48460;51.616;5.426;2023-02-19T14:50:15;102395.38;;;8.36;100.00
62420;BME280;48460;51.616;5.426;2023-02-19T14:52:50;102392.78;;;8.34;100.00
62420;BME280;48460;51.616;5.426;2023-02-19T14:55:29;102398.81;;;8.41;100.00
62420;BME280;48460;51.616;5.426;2023-02-19T14:58:00;102382.34;;;8.31;100.00
62420;BME280;48460;51.616;5.426;2023-02-19T15:00:50;102378.94;;;8.26;100.00
62420;BME280;48460;51.616;5.426;2023-02-19T15:03:35;102388.41;;;8.35;100.00
62420;BME280;48460;51.616;5.426;2023-02-19T15:06:10;102372.66;;;8.35;100.00
62420;BME280;48460;51.616;5.426;2023-02-19T15:08:41;102375.09;;;8.47;100.00
62420;BME280;48460;51.616;5.426;2023-02-19T15:11:16;102368.09;;;8.48;100.00
62420;BME280;48460;51.616;5.426;2023-02-19T15:14:02;102364.63;;;8.47;100.00
62420;BME280;48460;51.616;5.426;2023-02-19T15:16:31;102358.66;;;8.37;100.00